sensor_id;sensor_type;location;lat;lon;timestamp;P1;durP1;ratioP1;P2;durP2;ratioP2
28774;SDS011;15926;51.348;6.596;2023-08-31T04:05:06;4.95;;;3.55;;
28774;SDS011;15926;51.348;6.596;2023-08-31T04:07:34;5.70;;;3.85;;
28774;SDS011;15926;51.348;6.596;2023-08-31T04:10:01;4.22;;;3.65;;
28774;SDS011;15926;51.348;6.596;2023-08-31T04:12:30;4.78;;;3.65;;
28774;SDS011;15926;51.348;6.596;2023-08-31T04:14:56;6.78;;;4.15;;
28774;SDS011;15926;51.348;6.596;2023-08-31T04:17:22;11.80;;;3.47;;
28774;SDS011;15926;51.348;6.596;2023-08-31T04:19:50;4.85;;;3.50;;
28774;SDS011;15926;51.348;6.596;2023-08-31T04:22:16;4.80;;;3.97;;
28774;SDS011;15926;51.348;6.596;2023-08-31T04:24:42;7.05;;;4.25;;
28774;SDS011;15926;51.348;6.596;2023-08-31T04:27:08;6.93;;;4.00;;
28774;SDS011;15926;51.348;6.596;2023-08-31T04:29:34;4.45;;;4.07;;
28774;SDS011;15926;51.348;6.596;2023-08-31T04:32:00;4.65;;;4.25;;
28774;SDS011;15926;51.348;6.596;2023-08-31T04:34:48;6.03;;;3.70;;
28774;SDS011;15926;51.348;6.596;2023-08-31T04:37:13;5.55;;;3.90;;
28774;SDS011;15926;51.348;6.596;2023-08-31T04:39:39;4.45;;;3.95;;
28774;SDS011;15926;51.348;6.596;2023-08-31T04:42:05;10.43;;;4.72;;
28774;SDS011;15926;51.348;6.596;2023-08-31T04:44:32;7.53;;;4.38;;
28774;SDS011;15926;51.348;6.596;2023-08-31T04:46:58;6.72;;;3.97;;
28774;SDS011;15926;51.348;6.596;2023-08-31T04:49:30;5.43;;;4.47;;
28774;SDS011;15926;51.348;6.596;2023-08-31T04:51:58;7.32;;;5.38;;
28774;SDS011;15926;51.348;6.596;2023-08-31T04:54:24;9.95;;;4.88;;
28774;SDS011;15926;51.348;6.596;2023-08-31T04:56:59;9.23;;;4.75;;
28774;SDS011;15926;51.348;6.596;2023-08-31T04:59:25;9.18;;;5.10;;
28774;SDS011;15926;51.348;6.596;2023-08-31T05:01:51;7.50;;;4.70;;
28774;SDS011;15926;51.348;6.596;2023-08-31T05:04:17;9.60;;;4.88;;
28774;SDS011;15926;51.348;6.596;2023-08-31T05:06:49;7.90;;;5.45;;
28774;SDS011;15926;51.348;6.596;2023-08-31T05:09:15;8.88;;;5.15;;
28774;SDS011;15926;51.348;6.596;2023-08-31T05:11:41;5.82;;;5.05;;
28774;SDS011;15926;51.348;6.596;2023-08-31T05:14:07;6.63;;;4.88;;
28774;SDS011;15926;51.348;6.596;2023-08-31T05:16:33;9.50;;;5.45;;
28774;SDS011;15926;51.348;6.596;2023-08-31T05:18:59;10.90;;;5.75;;
28774;SDS011;15926;51.348;6.596;2023-08-31T05:21:25;7.05;;;5.30;;
28774;SDS011;15926;51.348;6.596;2023-08-31T05:23:51;7.47;;;5.57;;
28774;SDS011;15926;51.348;6.596;2023-08-31T05:26:18;7.10;;;5.63;;
28774;SDS011;15926;51.348;6.596;2023-08-31T05:28:44;7.22;;;5.55;;
28774;SDS011;15926;51.348;6.596;2023-08-31T05:31:10;6.40;;;5.35;;
28774;SDS011;15926;51.348;6.596;2023-08-31T05:33:36;6.43;;;5.35;;
28774;SDS011;15926;51.348;6.596;2023-08-31T05:36:02;7.80;;;5.75;;
28774;SDS011;15926;51.348;6.596;2023-08-31T05:38:31;9.32;;;5.82;;
28774;SDS011;15926;51.348;6.596;2023-08-31T05:41:07;9.70;;;6.72;;
28774;SDS011;15926;51.348;6.596;2023-08-31T05:43:36;7.20;;;6.05;;
28774;SDS011;15926;51.348;6.596;2023-08-31T05:46:06;10.13;;;6.32;;
28774;SDS011;15926;51.348;6.596;2023-08-31T05:48:33;7.32;;;5.90;;
28774;SDS011;15926;51.348;6.596;2023-08-31T05:50:59;9.40;;;6.32;;
28774;SDS011;15926;51.348;6.596;2023-08-31T05:53:25;8.07;;;5.63;;
28774;SDS011;15926;51.348;6.596;2023-08-31T05:55:51;9.80;;;7.03;;
28774;SDS011;15926;51.348;6.596;2023-08-31T05:58:17;9.05;;;6.68;;
28774;SDS011;15926;51.348;6.596;2023-08-31T06:01:00;10.57;;;7.07;;
28774;SDS011;15926;51.348;6.596;2023-08-31T06:03:33;9.50;;;6.30;;
28774;SDS011;15926;51.348;6.596;2023-08-31T06:06:00;9.63;;;7.47;;
28774;SDS011;15926;51.348;6.596;2023-08-31T06:08:26;8.63;;;7.25;;
28774;SDS011;15926;51.348;6.596;2023-08-31T06:10:53;9.30;;;8.20;;
28774;SDS011;15926;51.348;6.596;2023-08-31T06:13:19;8.80;;;7.40;;
28774;SDS011;15926;51.348;6.596;2023-08-31T06:15:45;10.43;;;6.57;;
28774;SDS011;15926;51.348;6.596;2023-08-31T06:18:17;9.13;;;8.00;;
28774;SDS011;15926;51.348;6.596;2023-08-31T06:20:43;10.00;;;6.78;;
28774;SDS011;15926;51.348;6.596;2023-08-31T06:23:10;10.75;;;5.90;;
28774;SDS011;15926;51.348;6.596;2023-08-31T06:25:36;10.10;;;6.20;;
28774;SDS011;15926;51.348;6.596;2023-08-31T06:28:02;8.30;;;6.15;;
28774;SDS011;15926;51.348;6.596;2023-08-31T06:30:33;7.40;;;5.60;;
28774;SDS011;15926;51.348;6.596;2023-08-31T06:32:59;9.55;;;5.78;;
28774;SDS011;15926;51.348;6.596;2023-08-31T06:35:25;6.90;;;5.05;;
28774;SDS011;15926;51.348;6.596;2023-08-31T06:37:51;6.22;;;5.57;;
28774;SDS011;15926;51.348;6.596;2023-08-31T06:40:20;7.47;;;6.25;;
28774;SDS011;15926;51.348;6.596;2023-08-31T06:42:46;6.03;;;5.43;;
28774;SDS011;15926;51.348;6.596;2023-08-31T06:45:12;5.85;;;4.82;;
28774;SDS011;15926;51.348;6.596;2023-08-31T06:47:38;6.10;;;4.75;;
28774;SDS011;15926;51.348;6.596;2023-08-31T06:50:04;8.13;;;5.60;;
28774;SDS011;15926;51.348;6.596;2023-08-31T06:52:31;6.65;;;4.55;;
28774;SDS011;15926;51.348;6.596;2023-08-31T06:54:58;8.88;;;4.63;;
28774;SDS011;15926;51.348;6.596;2023-08-31T06:57:25;5.32;;;4.82;;
28774;SDS011;15926;51.348;6.596;2023-08-31T06:59:51;5.13;;;4.53;;
28774;SDS011;15926;51.348;6.596;2023-08-31T07:02:18;4.47;;;3.83;;
28774;SDS011;15926;51.348;6.596;2023-08-31T07:04:44;4.68;;;4.03;;
28774;SDS011;15926;51.348;6.596;2023-08-31T07:07:10;4.43;;;4.00;;
28774;SDS011;15926;51.348;6.596;2023-08-31T07:09:38;4.13;;;3.80;;
28774;SDS011;15926;51.348;6.596;2023-08-31T07:12:05;3.90;;;3.58;;
28774;SDS011;15926;51.348;6.596;2023-08-31T07:14:31;4.38;;;3.70;;
28774;SDS011;15926;51.348;6.596;2023-08-31T07:16:58;6.82;;;4.20;;
28774;SDS011;15926;51.348;6.596;2023-08-31T07:19:24;5.32;;;3.90;;
28774;SDS011;15926;51.348;6.596;2023-08-31T07:21:50;4.45;;;3.80;;
28774;SDS011;15926;51.348;6.596;2023-08-31T07:24:16;4.70;;;3.80;;
28774;SDS011;15926;51.348;6.596;2023-08-31T07:26:42;3.65;;;3.28;;
28774;SDS011;15926;51.348;6.596;2023-08-31T07:29:08;6.82;;;3.50;;
28774;SDS011;15926;51.348;6.596;2023-08-31T07:31:34;8.68;;;3.72;;
28774;SDS011;15926;51.348;6.596;2023-08-31T07:34:00;5.35;;;3.67;;
28774;SDS011;15926;51.348;6.596;2023-08-31T07:36:26;3.65;;;3.35;;
28774;SDS011;15926;51.348;6.596;2023-08-31T07:38:52;4.55;;;3.22;;
28774;SDS011;15926;51.348;6.596;2023-08-31T07:41:18;4.13;;;3.25;;
28774;SDS011;15926;51.348;6.596;2023-08-31T07:43:44;5.50;;;3.58;;
28774;SDS011;15926;51.348;6.596;2023-08-31T07:46:10;3.88;;;3.40;;
28774;SDS011;15926;51.348;6.596;2023-08-31T07:48:36;5.13;;;2.80;;
28774;SDS011;15926;51.348;6.596;2023-08-31T07:51:03;5.75;;;3.30;;
28774;SDS011;15926;51.348;6.596;2023-08-31T07:53:29;8.18;;;3.42;;
28774;SDS011;15926;51.348;6.596;2023-08-31T07:55:55;7.32;;;3.42;;
28774;SDS011;15926;51.348;6.596;2023-08-31T07:58:22;5.25;;;3.38;;
28774;SDS011;15926;51.348;6.596;2023-08-31T08:00:48;6.55;;;3.63;;
28774;SDS011;15926;51.348;6.596;2023-08-31T08:03:14;4.25;;;3.03;;
28774;SDS011;15926;51.348;6.596;2023-08-31T08:05:40;5.53;;;3.25;;
28774;SDS011;15926;51.348;6.596;2023-08-31T08:08:06;3.95;;;3.00;;
28774;SDS011;15926;51.348;6.596;2023-08-31T08:10:33;7.18;;;3.28;;
28774;SDS011;15926;51.348;6.596;2023-08-31T08:12:59;3.15;;;2.85;;
28774;SDS011;15926;51.348;6.596;2023-08-31T08:15:25;4.80;;;2.85;;
28774;SDS011;15926;51.348;6.596;2023-08-31T08:17:51;9.18;;;3.53;;
28774;SDS011;15926;51.348;6.596;2023-08-31T08:20:18;4.35;;;3.33;;
28774;SDS011;15926;51.348;6.596;2023-08-31T08:22:45;6.53;;;3.38;;
28774;SDS011;15926;51.348;6.596;2023-08-31T08:25:12;3.28;;;2.83;;
28774;SDS011;15926;51.348;6.596;2023-08-31T08:27:38;3.55;;;2.60;;
28774;SDS011;15926;51.348;6.596;2023-08-31T08:30:04;4.32;;;2.47;;
28774;SDS011;15926;51.348;6.596;2023-08-31T08:32:32;6.85;;;2.83;;
28774;SDS011;15926;51.348;6.596;2023-08-31T08:34:59;3.90;;;3.00;;
28774;SDS011;15926;51.348;6.596;2023-08-31T08:37:25;5.03;;;2.88;;
28774;SDS011;15926;51.348;6.596;2023-08-31T08:39:51;5.82;;;3.30;;
28774;SDS011;15926;51.348;6.596;2023-08-31T08:42:17;3.47;;;2.95;;
28774;SDS011;15926;51.348;6.596;2023-08-31T08:44:44;2.58;;;2.38;;
28774;SDS011;15926;51.348;6.596;2023-08-31T08:47:11;2.28;;;2.08;;
28774;SDS011;15926;51.348;6.596;2023-08-31T08:49:37;4.68;;;2.90;;
28774;SDS011;15926;51.348;6.596;2023-08-31T08:52:04;3.40;;;2.63;;
28774;SDS011;15926;51.348;6.596;2023-08-31T08:54:30;5.88;;;2.67;;
28774;SDS011;15926;51.348;6.596;2023-08-31T08:56:56;4.32;;;2.50;;
28774;SDS011;15926;51.348;6.596;2023-08-31T08:59:23;5.20;;;2.72;;
28774;SDS011;15926;51.348;6.596;2023-08-31T09:01:49;6.13;;;2.55;;
28774;SDS011;15926;51.348;6.596;2023-08-31T09:04:15;4.25;;;2.20;;
28774;SDS011;15926;51.348;6.596;2023-08-31T09:06:41;7.45;;;3.40;;
28774;SDS011;15926;51.348;6.596;2023-08-31T09:09:09;3.45;;;2.22;;
28774;SDS011;15926;51.348;6.596;2023-08-31T09:11:35;2.55;;;2.10;;
28774;SDS011;15926;51.348;6.596;2023-08-31T09:14:18;4.20;;;1.92;;
28774;SDS011;15926;51.348;6.596;2023-08-31T09:16:49;4.53;;;2.03;;
28774;SDS011;15926;51.348;6.596;2023-08-31T09:19:22;4.95;;;2.33;;
28774;SDS011;15926;51.348;6.596;2023-08-31T09:21:48;6.00;;;1.92;;
28774;SDS011;15926;51.348;6.596;2023-08-31T09:24:14;2.28;;;1.85;;
28774;SDS011;15926;51.348;6.596;2023-08-31T09:26:47;5.90;;;1.77;;
28774;SDS011;15926;51.348;6.596;2023-08-31T09:29:13;3.65;;;1.55;;
28774;SDS011;15926;51.348;6.596;2023-08-31T09:31:42;3.50;;;1.70;;
28774;SDS011;15926;51.348;6.596;2023-08-31T09:34:09;6.10;;;1.70;;
28774;SDS011;15926;51.348;6.596;2023-08-31T09:36:36;4.45;;;1.85;;
28774;SDS011;15926;51.348;6.596;2023-08-31T09:39:02;5.25;;;1.58;;
28774;SDS011;15926;51.348;6.596;2023-08-31T09:41:29;3.70;;;1.25;;
28774;SDS011;15926;51.348;6.596;2023-08-31T09:43:55;2.45;;;1.77;;
28774;SDS011;15926;51.348;6.596;2023-08-31T09:46:21;4.28;;;1.60;;
28774;SDS011;15926;51.348;6.596;2023-08-31T09:48:48;3.95;;;1.70;;
28774;SDS011;15926;51.348;6.596;2023-08-31T09:51:15;3.83;;;1.70;;
28774;SDS011;15926;51.348;6.596;2023-08-31T09:53:48;2.88;;;1.92;;
28774;SDS011;15926;51.348;6.596;2023-08-31T09:56:16;2.45;;;1.63;;
28774;SDS011;15926;51.348;6.596;2023-08-31T09:58:43;3.00;;;1.95;;
28774;SDS011;15926;51.348;6.596;2023-08-31T10:01:09;3.53;;;1.70;;
28774;SDS011;15926;51.348;6.596;2023-08-31T10:03:35;4.70;;;1.73;;
28774;SDS011;15926;51.348;6.596;2023-08-31T10:06:02;4.68;;;2.10;;
28774;SDS011;15926;51.348;6.596;2023-08-31T10:08:29;5.38;;;1.90;;
28774;SDS011;15926;51.348;6.596;2023-08-31T10:10:58;2.72;;;1.92;;
28774;SDS011;15926;51.348;6.596;2023-08-31T10:13:24;2.95;;;1.70;;
28774;SDS011;15926;51.348;6.596;2023-08-31T10:15:51;4.43;;;1.90;;
28774;SDS011;15926;51.348;6.596;2023-08-31T10:18:18;5.60;;;1.80;;
28774;SDS011;15926;51.348;6.596;2023-08-31T10:20:44;4.97;;;2.10;;
28774;SDS011;15926;51.348;6.596;2023-08-31T10:23:11;2.10;;;1.60;;
28774;SDS011;15926;51.348;6.596;2023-08-31T10:25:59;3.75;;;1.73;;
28774;SDS011;15926;51.348;6.596;2023-08-31T10:28:25;2.95;;;2.05;;
28774;SDS011;15926;51.348;6.596;2023-08-31T10:33:33;2.58;;;1.95;;
28774;SDS011;15926;51.348;6.596;2023-08-31T10:35:59;2.90;;;1.70;;
28774;SDS011;15926;51.348;6.596;2023-08-31T10:38:26;2.55;;;1.55;;
28774;SDS011;15926;51.348;6.596;2023-08-31T10:43:28;3.17;;;1.83;;
28774;SDS011;15926;51.348;6.596;2023-08-31T10:46:15;4.00;;;1.65;;
28774;SDS011;15926;51.348;6.596;2023-08-31T10:48:54;8.15;;;1.35;;
28774;SDS011;15926;51.348;6.596;2023-08-31T10:51:24;3.33;;;1.88;;
28774;SDS011;15926;51.348;6.596;2023-08-31T10:53:50;3.25;;;1.55;;
28774;SDS011;15926;51.348;6.596;2023-08-31T10:56:17;3.80;;;1.83;;
28774;SDS011;15926;51.348;6.596;2023-08-31T10:58:43;2.90;;;1.27;;
28774;SDS011;15926;51.348;6.596;2023-08-31T11:01:09;4.05;;;1.10;;
28774;SDS011;15926;51.348;6.596;2023-08-31T11:06:20;2.70;;;1.20;;
28774;SDS011;15926;51.348;6.596;2023-08-31T11:08:46;7.45;;;1.45;;
28774;SDS011;15926;51.348;6.596;2023-08-31T11:11:12;2.47;;;1.52;;
28774;SDS011;15926;51.348;6.596;2023-08-31T11:13:38;3.67;;;1.27;;
28774;SDS011;15926;51.348;6.596;2023-08-31T11:16:04;4.10;;;1.40;;
28774;SDS011;15926;51.348;6.596;2023-08-31T11:18:31;2.13;;;1.17;;
28774;SDS011;15926;51.348;6.596;2023-08-31T11:20:57;3.83;;;1.40;;
28774;SDS011;15926;51.348;6.596;2023-08-31T11:23:25;2.78;;;1.50;;
28774;SDS011;15926;51.348;6.596;2023-08-31T11:25:51;3.03;;;1.55;;
28774;SDS011;15926;51.348;6.596;2023-08-31T11:28:16;4.65;;;1.40;;
28774;SDS011;15926;51.348;6.596;2023-08-31T11:30:44;2.00;;;1.38;;
28774;SDS011;15926;51.348;6.596;2023-08-31T11:33:11;2.38;;;1.30;;
28774;SDS011;15926;51.348;6.596;2023-08-31T11:35:39;2.67;;;1.40;;
28774;SDS011;15926;51.348;6.596;2023-08-31T11:38:06;2.10;;;0.90;;
28774;SDS011;15926;51.348;6.596;2023-08-31T11:40:32;4.95;;;1.50;;
28774;SDS011;15926;51.348;6.596;2023-08-31T11:42:58;4.70;;;1.38;;
28774;SDS011;15926;51.348;6.596;2023-08-31T11:45:28;2.72;;;1.33;;
28774;SDS011;15926;51.348;6.596;2023-08-31T11:47:55;3.40;;;1.50;;
28774;SDS011;15926;51.348;6.596;2023-08-31T11:50:21;4.55;;;1.60;;
28774;SDS011;15926;51.348;6.596;2023-08-31T11:52:48;3.75;;;1.40;;
28774;SDS011;15926;51.348;6.596;2023-08-31T11:55:15;2.55;;;1.17;;
28774;SDS011;15926;51.348;6.596;2023-08-31T11:57:49;4.22;;;1.52;;
28774;SDS011;15926;51.348;6.596;2023-08-31T12:00:19;3.10;;;1.52;;
28774;SDS011;15926;51.348;6.596;2023-08-31T12:02:45;4.72;;;1.75;;
28774;SDS011;15926;51.348;6.596;2023-08-31T12:05:13;2.83;;;1.27;;
28774;SDS011;15926;51.348;6.596;2023-08-31T12:07:40;3.33;;;1.52;;
28774;SDS011;15926;51.348;6.596;2023-08-31T12:10:06;4.32;;;1.60;;
28774;SDS011;15926;51.348;6.596;2023-08-31T12:12:33;3.28;;;1.52;;
28774;SDS011;15926;51.348;6.596;2023-08-31T12:15:01;3.33;;;1.00;;
28774;SDS011;15926;51.348;6.596;2023-08-31T12:17:28;3.60;;;1.70;;
28774;SDS011;15926;51.348;6.596;2023-08-31T12:20:04;3.63;;;1.30;;
28774;SDS011;15926;51.348;6.596;2023-08-31T12:22:31;4.28;;;1.50;;
28774;SDS011;15926;51.348;6.596;2023-08-31T12:24:57;2.70;;;1.38;;
28774;SDS011;15926;51.348;6.596;2023-08-31T12:27:23;2.30;;;1.10;;
28774;SDS011;15926;51.348;6.596;2023-08-31T12:29:49;2.17;;;1.40;;
28774;SDS011;15926;51.348;6.596;2023-08-31T12:32:15;4.25;;;1.50;;
28774;SDS011;15926;51.348;6.596;2023-08-31T12:34:45;3.30;;;1.35;;
28774;SDS011;15926;51.348;6.596;2023-08-31T12:37:11;1.38;;;1.05;;
28774;SDS011;15926;51.348;6.596;2023-08-31T12:39:37;2.70;;;1.25;;
28774;SDS011;15926;51.348;6.596;2023-08-31T12:42:03;4.50;;;1.45;;
28774;SDS011;15926;51.348;6.596;2023-08-31T12:44:29;2.78;;;1.40;;
28774;SDS011;15926;51.348;6.596;2023-08-31T12:46:56;3.25;;;1.42;;
28774;SDS011;15926;51.348;6.596;2023-08-31T12:49:22;4.85;;;1.30;;
28774;SDS011;15926;51.348;6.596;2023-08-31T12:51:48;3.15;;;1.70;;
28774;SDS011;15926;51.348;6.596;2023-08-31T12:54:15;4.93;;;1.50;;
28774;SDS011;15926;51.348;6.596;2023-08-31T12:56:41;2.10;;;1.00;;
28774;SDS011;15926;51.348;6.596;2023-08-31T12:59:08;3.75;;;1.20;;
28774;SDS011;15926;51.348;6.596;2023-08-31T13:01:34;3.28;;;1.70;;
28774;SDS011;15926;51.348;6.596;2023-08-31T13:04:00;4.85;;;1.38;;
28774;SDS011;15926;51.348;6.596;2023-08-31T13:06:27;3.67;;;1.40;;
28774;SDS011;15926;51.348;6.596;2023-08-31T13:08:53;2.90;;;1.63;;
28774;SDS011;15926;51.348;6.596;2023-08-31T13:11:19;2.17;;;1.50;;
28774;SDS011;15926;51.348;6.596;2023-08-31T13:13:48;3.78;;;1.15;;
28774;SDS011;15926;51.348;6.596;2023-08-31T13:16:16;3.20;;;1.13;;
28774;SDS011;15926;51.348;6.596;2023-08-31T13:18:42;3.92;;;1.17;;
28774;SDS011;15926;51.348;6.596;2023-08-31T13:21:08;3.80;;;1.15;;
28774;SDS011;15926;51.348;6.596;2023-08-31T13:23:34;2.97;;;1.10;;
28774;SDS011;15926;51.348;6.596;2023-08-31T13:25:59;3.28;;;1.35;;
28774;SDS011;15926;51.348;6.596;2023-08-31T13:28:25;1.85;;;0.93;;
28774;SDS011;15926;51.348;6.596;2023-08-31T13:30:55;3.22;;;1.35;;
28774;SDS011;15926;51.348;6.596;2023-08-31T13:33:25;2.80;;;0.98;;
28774;SDS011;15926;51.348;6.596;2023-08-31T13:35:53;2.30;;;1.10;;
28774;SDS011;15926;51.348;6.596;2023-08-31T13:38:19;1.67;;;1.27;;
28774;SDS011;15926;51.348;6.596;2023-08-31T13:40:45;2.38;;;1.15;;
28774;SDS011;15926;51.348;6.596;2023-08-31T13:43:11;2.00;;;1.20;;
28774;SDS011;15926;51.348;6.596;2023-08-31T13:45:37;3.70;;;1.35;;
28774;SDS011;15926;51.348;6.596;2023-08-31T13:48:03;2.75;;;1.60;;
28774;SDS011;15926;51.348;6.596;2023-08-31T13:50:30;3.78;;;1.20;;
28774;SDS011;15926;51.348;6.596;2023-08-31T13:52:56;1.85;;;1.10;;
28774;SDS011;15926;51.348;6.596;2023-08-31T13:55:22;2.20;;;1.10;;
28774;SDS011;15926;51.348;6.596;2023-08-31T13:57:48;3.97;;;1.23;;
28774;SDS011;15926;51.348;6.596;2023-08-31T14:00:14;2.65;;;1.23;;
28774;SDS011;15926;51.348;6.596;2023-08-31T14:02:41;3.75;;;1.00;;
28774;SDS011;15926;51.348;6.596;2023-08-31T14:05:08;2.97;;;1.33;;
28774;SDS011;15926;51.348;6.596;2023-08-31T14:07:35;2.05;;;1.10;;
28774;SDS011;15926;51.348;6.596;2023-08-31T14:10:02;3.60;;;1.38;;
28774;SDS011;15926;51.348;6.596;2023-08-31T14:12:30;2.10;;;1.00;;
28774;SDS011;15926;51.348;6.596;2023-08-31T14:14:56;2.05;;;1.00;;
28774;SDS011;15926;51.348;6.596;2023-08-31T14:17:23;3.75;;;1.30;;
28774;SDS011;15926;51.348;6.596;2023-08-31T14:19:49;3.88;;;1.40;;
28774;SDS011;15926;51.348;6.596;2023-08-31T14:22:15;4.28;;;1.40;;
28774;SDS011;15926;51.348;6.596;2023-08-31T14:24:41;1.65;;;1.50;;
28774;SDS011;15926;51.348;6.596;2023-08-31T14:27:07;2.97;;;1.58;;
28774;SDS011;15926;51.348;6.596;2023-08-31T14:29:33;3.13;;;2.00;;
28774;SDS011;15926;51.348;6.596;2023-08-31T14:32:00;5.65;;;2.05;;
28774;SDS011;15926;51.348;6.596;2023-08-31T14:34:26;3.13;;;1.58;;
28774;SDS011;15926;51.348;6.596;2023-08-31T14:36:52;4.40;;;1.75;;
28774;SDS011;15926;51.348;6.596;2023-08-31T14:39:22;3.80;;;1.67;;
28774;SDS011;15926;51.348;6.596;2023-08-31T14:41:54;3.78;;;1.55;;
28774;SDS011;15926;51.348;6.596;2023-08-31T14:44:20;2.53;;;1.80;;
28774;SDS011;15926;51.348;6.596;2023-08-31T14:46:46;6.97;;;1.75;;
28774;SDS011;15926;51.348;6.596;2023-08-31T14:49:12;2.53;;;1.70;;
28774;SDS011;15926;51.348;6.596;2023-08-31T14:51:38;2.05;;;1.40;;
28774;SDS011;15926;51.348;6.596;2023-08-31T14:54:04;2.45;;;1.55;;
28774;SDS011;15926;51.348;6.596;2023-08-31T14:56:30;4.68;;;1.45;;
28774;SDS011;15926;51.348;6.596;2023-08-31T14:58:56;3.42;;;1.75;;
28774;SDS011;15926;51.348;6.596;2023-08-31T15:01:22;5.18;;;1.80;;
28774;SDS011;15926;51.348;6.596;2023-08-31T15:03:49;4.82;;;2.13;;
28774;SDS011;15926;51.348;6.596;2023-08-31T15:06:15;3.70;;;2.00;;
28774;SDS011;15926;51.348;6.596;2023-08-31T15:08:41;4.88;;;2.03;;
28774;SDS011;15926;51.348;6.596;2023-08-31T15:11:07;2.05;;;1.85;;
28774;SDS011;15926;51.348;6.596;2023-08-31T15:13:33;2.53;;;1.40;;
28774;SDS011;15926;51.348;6.596;2023-08-31T15:15:59;2.50;;;1.55;;
28774;SDS011;15926;51.348;6.596;2023-08-31T15:18:28;4.05;;;2.13;;
28774;SDS011;15926;51.348;6.596;2023-08-31T15:20:55;3.00;;;1.58;;
28774;SDS011;15926;51.348;6.596;2023-08-31T15:23:21;2.10;;;1.90;;
28774;SDS011;15926;51.348;6.596;2023-08-31T15:25:47;2.97;;;1.70;;
28774;SDS011;15926;51.348;6.596;2023-08-31T15:28:13;2.10;;;1.92;;
28774;SDS011;15926;51.348;6.596;2023-08-31T15:30:39;3.50;;;1.70;;
28774;SDS011;15926;51.348;6.596;2023-08-31T15:33:05;5.15;;;2.00;;
28774;SDS011;15926;51.348;6.596;2023-08-31T15:35:32;2.42;;;2.20;;
28774;SDS011;15926;51.348;6.596;2023-08-31T15:37:58;3.78;;;2.03;;
28774;SDS011;15926;51.348;6.596;2023-08-31T15:40:24;3.58;;;2.15;;
28774;SDS011;15926;51.348;6.596;2023-08-31T15:42:50;3.22;;;2.05;;
28774;SDS011;15926;51.348;6.596;2023-08-31T15:45:16;3.50;;;2.25;;
28774;SDS011;15926;51.348;6.596;2023-08-31T15:47:42;4.78;;;2.47;;
28774;SDS011;15926;51.348;6.596;2023-08-31T15:50:09;4.40;;;2.45;;
28774;SDS011;15926;51.348;6.596;2023-08-31T15:52:35;3.55;;;2.50;;
28774;SDS011;15926;51.348;6.596;2023-08-31T15:55:02;4.43;;;2.13;;
28774;SDS011;15926;51.348;6.596;2023-08-31T15:57:30;3.58;;;2.53;;
28774;SDS011;15926;51.348;6.596;2023-08-31T15:59:59;3.83;;;2.10;;
28774;SDS011;15926;51.348;6.596;2023-08-31T16:02:25;2.88;;;2.58;;
28774;SDS011;15926;51.348;6.596;2023-08-31T16:04:55;5.60;;;2.70;;
28774;SDS011;15926;51.348;6.596;2023-08-31T16:09:50;3.10;;;2.53;;
28774;SDS011;15926;51.348;6.596;2023-08-31T16:12:17;3.80;;;2.30;;
28774;SDS011;15926;51.348;6.596;2023-08-31T16:14:49;4.28;;;2.30;;
28774;SDS011;15926;51.348;6.596;2023-08-31T16:17:16;4.95;;;2.03;;
28774;SDS011;15926;51.348;6.596;2023-08-31T16:19:43;4.93;;;2.17;;
28774;SDS011;15926;51.348;6.596;2023-08-31T16:22:09;3.17;;;2.28;;
28774;SDS011;15926;51.348;6.596;2023-08-31T16:24:35;2.35;;;2.15;;
28774;SDS011;15926;51.348;6.596;2023-08-31T16:27:01;3.08;;;2.10;;
28774;SDS011;15926;51.348;6.596;2023-08-31T16:29:28;2.45;;;2.25;;
28774;SDS011;15926;51.348;6.596;2023-08-31T16:31:54;2.75;;;1.98;;
28774;SDS011;15926;51.348;6.596;2023-08-31T16:34:19;3.15;;;2.35;;
28774;SDS011;15926;51.348;6.596;2023-08-31T16:36:45;3.88;;;2.13;;
28774;SDS011;15926;51.348;6.596;2023-08-31T16:39:12;2.22;;;2.03;;
28774;SDS011;15926;51.348;6.596;2023-08-31T16:41:38;2.70;;;2.20;;
28774;SDS011;15926;51.348;6.596;2023-08-31T16:44:06;4.35;;;2.20;;
28774;SDS011;15926;51.348;6.596;2023-08-31T16:46:32;3.33;;;1.90;;
28774;SDS011;15926;51.348;6.596;2023-08-31T16:48:58;4.60;;;2.35;;
28774;SDS011;15926;51.348;6.596;2023-08-31T16:51:24;3.72;;;2.10;;
28774;SDS011;15926;51.348;6.596;2023-08-31T16:53:50;2.40;;;2.20;;
28774;SDS011;15926;51.348;6.596;2023-08-31T16:56:16;3.83;;;2.35;;
28774;SDS011;15926;51.348;6.596;2023-08-31T16:58:42;5.00;;;2.13;;
28774;SDS011;15926;51.348;6.596;2023-08-31T17:01:08;5.72;;;2.40;;
28774;SDS011;15926;51.348;6.596;2023-08-31T17:03:34;3.45;;;2.40;;
28774;SDS011;15926;51.348;6.596;2023-08-31T17:06:00;3.08;;;2.17;;
28774;SDS011;15926;51.348;6.596;2023-08-31T17:08:27;5.32;;;1.95;;
28774;SDS011;15926;51.348;6.596;2023-08-31T17:10:54;3.55;;;2.50;;
28774;SDS011;15926;51.348;6.596;2023-08-31T17:13:20;3.28;;;2.38;;
28774;SDS011;15926;51.348;6.596;2023-08-31T17:15:46;4.38;;;2.40;;
28774;SDS011;15926;51.348;6.596;2023-08-31T17:18:13;3.13;;;2.00;;
28774;SDS011;15926;51.348;6.596;2023-08-31T17:20:39;4.30;;;2.30;;
28774;SDS011;15926;51.348;6.596;2023-08-31T17:23:06;6.78;;;2.40;;
28774;SDS011;15926;51.348;6.596;2023-08-31T17:25:32;2.97;;;2.13;;
28774;SDS011;15926;51.348;6.596;2023-08-31T17:27:58;3.72;;;2.47;;
28774;SDS011;15926;51.348;6.596;2023-08-31T17:30:24;4.88;;;2.45;;
28774;SDS011;15926;51.348;6.596;2023-08-31T17:32:50;5.22;;;2.50;;
28774;SDS011;15926;51.348;6.596;2023-08-31T17:35:16;2.28;;;2.00;;
28774;SDS011;15926;51.348;6.596;2023-08-31T17:37:42;2.78;;;2.08;;
28774;SDS011;15926;51.348;6.596;2023-08-31T17:40:08;2.38;;;2.03;;
28774;SDS011;15926;51.348;6.596;2023-08-31T17:42:38;2.97;;;1.80;;
28774;SDS011;15926;51.348;6.596;2023-08-31T17:45:09;8.23;;;2.28;;
28774;SDS011;15926;51.348;6.596;2023-08-31T17:47:36;3.60;;;2.40;;
28774;SDS011;15926;51.348;6.596;2023-08-31T17:50:03;5.30;;;2.47;;
28774;SDS011;15926;51.348;6.596;2023-08-31T17:52:29;5.60;;;2.30;;
28774;SDS011;15926;51.348;6.596;2023-08-31T17:54:55;5.70;;;2.50;;
28774;SDS011;15926;51.348;6.596;2023-08-31T17:57:21;4.30;;;2.35;;
28774;SDS011;15926;51.348;6.596;2023-08-31T17:59:49;3.15;;;2.17;;
28774;SDS011;15926;51.348;6.596;2023-08-31T18:02:15;3.40;;;2.17;;
28774;SDS011;15926;51.348;6.596;2023-08-31T18:04:41;3.80;;;2.30;;
28774;SDS011;15926;51.348;6.596;2023-08-31T18:07:07;3.40;;;2.30;;
28774;SDS011;15926;51.348;6.596;2023-08-31T18:09:35;3.38;;;2.40;;
28774;SDS011;15926;51.348;6.596;2023-08-31T18:12:04;7.68;;;2.75;;
28774;SDS011;15926;51.348;6.596;2023-08-31T18:14:31;8.93;;;2.20;;
28774;SDS011;15926;51.348;6.596;2023-08-31T18:16:57;4.60;;;2.67;;
28774;SDS011;15926;51.348;6.596;2023-08-31T18:19:23;7.43;;;2.80;;
28774;SDS011;15926;51.348;6.596;2023-08-31T18:21:50;3.50;;;2.47;;
28774;SDS011;15926;51.348;6.596;2023-08-31T18:24:16;3.10;;;2.53;;
28774;SDS011;15926;51.348;6.596;2023-08-31T18:26:42;3.42;;;2.65;;
28774;SDS011;15926;51.348;6.596;2023-08-31T18:29:08;5.70;;;2.50;;
28774;SDS011;15926;51.348;6.596;2023-08-31T18:31:34;3.85;;;2.40;;
28774;SDS011;15926;51.348;6.596;2023-08-31T18:34:00;11.27;;;2.92;;
28774;SDS011;15926;51.348;6.596;2023-08-31T18:36:28;5.07;;;2.92;;
28774;SDS011;15926;51.348;6.596;2023-08-31T18:38:54;5.22;;;2.80;;
28774;SDS011;15926;51.348;6.596;2023-08-31T18:41:20;5.15;;;3.17;;
28774;SDS011;15926;51.348;6.596;2023-08-31T18:43:46;6.90;;;3.20;;
28774;SDS011;15926;51.348;6.596;2023-08-31T18:46:12;5.65;;;2.83;;
28774;SDS011;15926;51.348;6.596;2023-08-31T18:48:38;2.97;;;2.70;;
28774;SDS011;15926;51.348;6.596;2023-08-31T18:51:04;12.30;;;3.60;;
28774;SDS011;15926;51.348;6.596;2023-08-31T18:53:30;7.78;;;3.60;;
28774;SDS011;15926;51.348;6.596;2023-08-31T18:55:57;3.40;;;2.70;;
28774;SDS011;15926;51.348;6.596;2023-08-31T18:58:23;7.88;;;3.40;;
28774;SDS011;15926;51.348;6.596;2023-08-31T19:00:49;4.30;;;3.33;;